Carora, Venezuela
Current Conditions -  °F | °C
As of 2:00 PM on Thursday 23 Oct 2014 (Local Time) from SVBM Reporting Station
Scattered Clouds Scattered Clouds  
Wind Chill: 88°   Ceiling: Unl
Heat Index: 91°   Visibility: 6mi
Dew Point: 68°   Wind: 18mph
Humidity: 52%   Direction: 110°ESE
Pressure: 29.91"   Gusts: NA
Location:  10.19°N, 70.08°W
Report Text: SVBM 231800Z 11016KT 9999 SCT016 31/20 Q1013
Loading
Personal Weather Stations






























Interactive Weather Map New forecast layout! Learn more

10-Day Weather Forecast

Advertisements
Track Severe Weather on mobile